Gujrat, Pakistan
Current Conditions -  °F | °C
As of 1:25 AM on Friday 24 Oct 2014 (Local Time) from OPLA Reporting Station
Smoke Smoke  
Wind Chill: 72°   Ceiling: Unl
Heat Index: 72°   Visibility: 2.5mi
Dew Point: 63°   Wind: 0mph
Humidity: 73%   Direction: NA
Pressure: 29.94"   Gusts: NA
Location:  32.58°N, 74.07°E
Report Text: OPLA 232025Z 00000KT 4000 FU NSC 22/17 Q1014
Loading
Personal Weather Stations






























Interactive Weather Map
Tropical Storm Tracking
New forecast layout! Learn more

10-Day Weather Forecast

Advertisements
Track Severe Weather on mobile